createdAt,value
2023-04-21T00:01:40.852Z,11.58
2023-04-21T00:04:10.044Z,11.55
2023-04-21T00:06:37.501Z,11.56
2023-04-21T00:09:05.528Z,11.42
2023-04-21T00:11:32.520Z,11.57
2023-04-21T00:13:59.541Z,11.59
2023-04-21T00:16:26.386Z,11.65
2023-04-21T00:18:53.210Z,11.62
2023-04-21T00:21:20.153Z,11.69
2023-04-21T00:23:47.553Z,11.67
2023-04-21T00:26:14.656Z,11.71
2023-04-21T00:28:43.755Z,11.73
2023-04-21T00:31:10.867Z,11.75
2023-04-21T00:33:37.843Z,11.79
2023-04-21T00:36:05.031Z,11.84
2023-04-21T00:38:31.945Z,11.91
2023-04-21T00:40:59.142Z,11.91
2023-04-21T00:43:26.195Z,11.94
2023-04-21T00:45:54.524Z,11.94
2023-04-21T00:48:21.464Z,11.99
2023-04-21T00:50:48.859Z,11.96
2023-04-21T00:53:16.066Z,11.90
2023-04-21T00:55:43.041Z,11.86
2023-04-21T00:58:10.088Z,11.86
2023-04-21T01:00:38.419Z,11.97
2023-04-21T01:03:07.187Z,12.01
2023-04-21T01:05:34.537Z,11.98
2023-04-21T01:08:02.853Z,12.06
2023-04-21T01:10:29.903Z,12.15
2023-04-21T01:12:56.744Z,12.09
2023-04-21T01:15:26.227Z,12.10
2023-04-21T01:17:54.213Z,12.08
2023-04-21T01:20:21.242Z,12.06
2023-04-21T01:22:50.001Z,12.00
2023-04-21T01:25:18.729Z,11.96
2023-04-21T01:27:45.600Z,11.91
2023-04-21T01:30:13.145Z,11.96
2023-04-21T01:32:40.057Z,11.91
2023-04-21T01:35:08.665Z,11.83
2023-04-21T01:37:38.270Z,11.88
2023-04-21T01:40:09.536Z,11.83
2023-04-21T01:42:37.937Z,11.72
2023-04-21T01:45:05.614Z,11.68
2023-04-21T01:47:32.690Z,11.68
2023-04-21T01:49:59.628Z,11.71
2023-04-21T01:52:26.515Z,11.67
2023-04-21T01:54:54.629Z,11.76
2023-04-21T01:57:21.711Z,11.68
2023-04-21T01:59:50.608Z,11.58
2023-04-21T02:02:17.677Z,11.55
2023-04-21T02:04:44.775Z,11.48
2023-04-21T02:07:11.878Z,11.50
2023-04-21T02:09:41.042Z,11.52
2023-04-21T02:12:08.234Z,11.59
2023-04-21T02:14:36.858Z,11.59
2023-04-21T02:17:04.184Z,11.53
2023-04-21T02:19:31.407Z,11.50
2023-04-21T02:21:58.406Z,11.50
2023-04-21T02:24:25.638Z,11.54
2023-04-21T02:26:53.996Z,11.55
2023-04-21T02:29:21.001Z,11.47
2023-04-21T02:31:59.343Z,11.47
2023-04-21T02:34:28.456Z,11.47
2023-04-21T02:36:55.529Z,11.48
2023-04-21T02:39:22.299Z,11.42
2023-04-21T02:41:49.398Z,11.44
2023-04-21T02:44:16.381Z,11.35
2023-04-21T02:46:44.925Z,11.35
2023-04-21T02:49:11.880Z,11.34
2023-04-21T02:51:38.896Z,11.24
2023-04-21T02:54:05.921Z,11.17
2023-04-21T02:56:34.804Z,11.15
2023-04-21T02:59:01.664Z,11.05
2023-04-21T03:01:28.662Z,10.95
2023-04-21T03:03:55.710Z,10.98
2023-04-21T03:06:22.767Z,10.94
2023-04-21T03:08:49.648Z,10.80
2023-04-21T03:11:16.601Z,10.79
2023-04-21T03:13:45.560Z,10.82
2023-04-21T03:16:13.469Z,10.80
2023-04-21T03:18:40.631Z,10.79
2023-04-21T03:21:07.461Z,10.79
2023-04-21T03:23:34.415Z,10.76
2023-04-21T03:26:01.354Z,10.75
2023-04-21T03:28:28.254Z,10.65
2023-04-21T03:30:55.370Z,10.64
2023-04-21T03:33:22.437Z,10.63
2023-04-21T03:35:49.232Z,10.66
2023-04-21T03:38:16.360Z,10.66
2023-04-21T03:40:43.413Z,10.57
2023-04-21T03:43:10.469Z,10.69
2023-04-21T03:45:38.257Z,10.64
2023-04-21T03:48:05.658Z,10.68
2023-04-21T03:50:32.797Z,10.66
2023-04-21T03:52:59.835Z,10.71
2023-04-21T03:55:26.823Z,10.71
2023-04-21T03:57:53.839Z,10.66
2023-04-21T04:00:21.248Z,10.74
2023-04-21T04:02:48.416Z,10.83
2023-04-21T04:05:15.919Z,10.82
2023-04-21T04:07:42.961Z,10.92
2023-04-21T04:10:09.773Z,10.88
2023-04-21T04:12:36.700Z,10.96
2023-04-21T04:15:03.778Z,10.83
2023-04-21T04:17:31.104Z,11.00
2023-04-21T04:19:58.145Z,11.04
2023-04-21T04:22:25.359Z,11.09
2023-04-21T04:27:21.483Z,11.20
2023-04-21T04:29:49.365Z,11.24
2023-04-21T04:32:16.284Z,11.30
2023-04-21T04:34:43.577Z,11.43
2023-04-21T04:37:11.333Z,11.45
2023-04-21T04:39:38.624Z,11.42
2023-04-21T04:42:11.827Z,11.49
2023-04-21T04:44:39.042Z,11.59
2023-04-21T04:47:06.215Z,11.62
2023-04-21T04:49:33.568Z,11.69
2023-04-21T04:52:03.309Z,11.79
2023-04-21T04:54:30.210Z,11.85
2023-04-21T04:56:58.023Z,11.94
2023-04-21T04:59:25.300Z,12.04
2023-04-21T05:01:52.750Z,12.06
2023-04-21T05:04:20.673Z,12.17
2023-04-21T05:06:47.999Z,12.27
2023-04-21T05:09:14.897Z,12.34
2023-04-21T05:11:41.931Z,12.38
2023-04-21T05:14:08.945Z,12.46
2023-04-21T05:16:35.884Z,12.58
2023-04-21T05:19:03.159Z,12.69
2023-04-21T05:21:31.492Z,12.72
2023-04-21T05:23:59.466Z,12.84
2023-04-21T05:26:27.852Z,12.94
2023-04-21T05:28:58.377Z,13.05
2023-04-21T05:31:25.684Z,13.12
2023-04-21T05:33:52.813Z,13.17
2023-04-21T05:36:24.910Z,13.18
2023-04-21T05:38:52.757Z,13.25
2023-04-21T05:41:19.696Z,13.37
2023-04-21T05:43:47.622Z,13.37
2023-04-21T05:46:14.812Z,13.49
2023-04-21T05:48:41.866Z,13.63
2023-04-21T05:51:11.128Z,13.74
2023-04-21T05:53:39.567Z,13.82
2023-04-21T05:56:08.579Z,13.82
2023-04-21T05:58:36.187Z,13.90
2023-04-21T06:01:03.889Z,13.95
2023-04-21T06:03:32.427Z,13.98
2023-04-21T06:06:04.375Z,14.01
2023-04-21T06:08:31.667Z,13.99
2023-04-21T06:10:58.829Z,14.09
2023-04-21T06:13:27.785Z,14.05
2023-04-21T06:15:55.252Z,14.28
2023-04-21T06:18:22.475Z,14.49
2023-04-21T06:20:53.957Z,14.75
2023-04-21T06:23:21.230Z,14.87
2023-04-21T06:26:04.266Z,14.99
2023-04-21T06:28:32.127Z,14.89
2023-04-21T06:31:04.079Z,14.85
2023-04-21T06:33:32.640Z,15.05
2023-04-21T06:35:59.692Z,15.13
2023-04-21T06:38:26.567Z,15.01
2023-04-21T06:40:53.530Z,15.04
2023-04-21T06:43:20.650Z,15.17
2023-04-21T06:45:51.038Z,15.39
2023-04-21T06:48:18.175Z,15.17
2023-04-21T06:50:46.426Z,15.41
2023-04-21T06:53:13.520Z,15.22
2023-04-21T06:55:40.556Z,15.19
2023-04-21T06:58:07.476Z,15.28
2023-04-21T07:00:34.470Z,15.26
2023-04-21T07:03:01.530Z,15.20
2023-04-21T07:05:29.096Z,15.01
2023-04-21T07:07:59.850Z,15.08
2023-04-21T07:10:27.941Z,15.02
2023-04-21T07:12:55.889Z,15.20
2023-04-21T07:15:23.272Z,14.99
2023-04-21T07:17:50.243Z,14.69
2023-04-21T07:20:18.809Z,14.67
2023-04-21T07:22:46.069Z,14.68
2023-04-21T07:25:13.200Z,14.65
2023-04-21T07:27:41.567Z,14.45
2023-04-21T07:30:09.443Z,14.14
2023-04-21T07:32:38.863Z,14.12
2023-04-21T07:35:07.022Z,14.14
2023-04-21T07:37:34.009Z,14.10
2023-04-21T07:40:01.459Z,14.13
2023-04-21T07:42:28.569Z,14.12
2023-04-21T07:44:56.200Z,14.21
2023-04-21T07:47:23.381Z,14.33
2023-04-21T07:49:50.776Z,14.36
2023-04-21T07:52:17.797Z,14.13
2023-04-21T07:54:44.826Z,14.26
2023-04-21T07:57:11.804Z,14.01
2023-04-21T07:59:38.726Z,14.01
2023-04-21T08:02:06.026Z,14.12
2023-04-21T08:04:33.032Z,14.38
2023-04-21T08:07:00.487Z,14.44
2023-04-21T08:09:27.628Z,14.35
2023-04-21T08:11:55.416Z,14.20
2023-04-21T08:14:22.317Z,14.04
2023-04-21T08:16:49.765Z,14.01
2023-04-21T08:19:16.935Z,14.18
2023-04-21T08:21:43.846Z,14.34
2023-04-21T08:24:10.933Z,14.39
2023-04-21T08:26:37.855Z,14.54
2023-04-21T08:29:07.499Z,14.52
2023-04-21T08:31:34.890Z,14.54
2023-04-21T08:34:03.031Z,14.66
2023-04-21T08:36:30.861Z,14.74
2023-04-21T08:38:58.106Z,14.69
2023-04-21T08:41:26.482Z,14.87
2023-04-21T08:43:53.605Z,15.20
2023-04-21T08:46:21.745Z,15.56
2023-04-21T08:48:48.743Z,15.89
2023-04-21T08:51:22.534Z,16.16
2023-04-21T08:53:49.325Z,16.23
2023-04-21T08:56:16.480Z,16.33
2023-04-21T08:58:43.464Z,16.36
2023-04-21T09:01:11.273Z,16.47
2023-04-21T09:03:38.442Z,16.24
2023-04-21T09:06:08.838Z,16.50
2023-04-21T09:08:43.463Z,16.35
2023-04-21T09:11:14.954Z,16.37
2023-04-21T09:13:43.982Z,16.50
2023-04-21T09:16:21.166Z,16.55
2023-04-21T09:18:49.613Z,16.64
2023-04-21T09:21:18.328Z,16.47
2023-04-21T09:23:49.994Z,16.41
2023-04-21T09:26:19.103Z,16.53
2023-04-21T09:28:48.471Z,16.70
2023-04-21T09:31:20.117Z,16.87
2023-04-21T09:33:58.736Z,17.12
2023-04-21T09:36:29.698Z,17.24
2023-04-21T09:41:34.455Z,17.48
2023-04-21T09:44:02.109Z,17.39
2023-04-21T09:46:38.489Z,17.56
2023-04-21T09:49:06.611Z,17.82
2023-04-21T09:54:28.501Z,18.10
2023-04-21T09:57:02.527Z,18.25
2023-04-21T09:59:33.064Z,18.08
2023-04-21T10:02:01.360Z,18.32
2023-04-21T10:04:31.667Z,18.31
2023-04-21T10:07:00.410Z,18.24
2023-04-21T10:09:56.349Z,18.28
2023-04-21T10:12:25.179Z,18.17
2023-04-21T10:14:56.980Z,18.21
2023-04-21T10:17:26.261Z,17.85
2023-04-21T10:19:57.312Z,17.87
2023-04-21T10:22:32.813Z,17.93
2023-04-21T10:25:02.459Z,18.04
2023-04-21T10:27:36.649Z,17.92
2023-04-21T10:30:23.481Z,18.02
2023-04-21T10:33:03.730Z,17.95
2023-04-21T10:36:03.446Z,17.98
2023-04-21T10:38:44.504Z,17.95
2023-04-21T10:41:28.290Z,17.88
2023-04-21T10:43:59.524Z,17.85
2023-04-21T10:46:35.317Z,17.60
2023-04-21T10:49:07.092Z,17.60
2023-04-21T10:52:03.498Z,17.76
2023-04-21T10:54:37.334Z,17.65
2023-04-21T10:57:08.216Z,17.71
2023-04-21T10:59:36.175Z,17.78
2023-04-21T11:02:07.863Z,17.83
2023-04-21T11:04:35.375Z,17.78
2023-04-21T11:07:08.197Z,17.94
2023-04-21T11:09:36.859Z,18.04
2023-04-21T11:12:07.555Z,18.13
2023-04-21T11:14:37.038Z,18.37
2023-04-21T11:17:12.921Z,18.55
2023-04-21T11:19:40.588Z,18.57
2023-04-21T11:22:07.792Z,18.58
2023-04-21T11:24:34.999Z,18.58
2023-04-21T11:27:02.279Z,18.76
2023-04-21T11:29:29.921Z,18.84
2023-04-21T11:31:59.033Z,18.68
2023-04-21T11:34:26.961Z,18.83
2023-04-21T11:36:54.212Z,18.89
2023-04-21T11:39:22.246Z,18.78
2023-04-21T11:41:51.216Z,18.69
2023-04-21T11:44:36.510Z,18.44
2023-04-21T11:47:33.461Z,18.12
2023-04-21T11:50:04.152Z,18.03
2023-04-21T11:52:37.492Z,17.97
2023-04-21T11:55:15.521Z,17.97
2023-04-21T11:57:42.507Z,18.04
2023-04-21T12:00:14.570Z,18.15
2023-04-21T12:02:42.885Z,17.96
2023-04-21T12:05:12.230Z,17.95
2023-04-21T12:07:42.784Z,18.03
2023-04-21T12:10:11.840Z,18.17
2023-04-21T12:12:39.642Z,18.11
2023-04-21T12:15:07.725Z,18.15
2023-04-21T12:17:39.711Z,18.15
2023-04-21T12:20:07.739Z,17.86
2023-04-21T12:22:34.937Z,17.85
2023-04-21T12:25:02.007Z,17.70
2023-04-21T12:27:29.289Z,17.37
2023-04-21T12:29:56.095Z,17.22
2023-04-21T12:32:23.192Z,17.27
2023-04-21T12:34:50.287Z,17.41
2023-04-21T12:37:17.364Z,17.65
2023-04-21T12:39:44.164Z,17.83
2023-04-21T12:42:11.226Z,18.03
2023-04-21T12:44:38.866Z,18.29
2023-04-21T12:47:06.460Z,18.17
2023-04-21T12:49:33.266Z,18.47
2023-04-21T12:52:00.456Z,18.58
2023-04-21T12:54:27.326Z,18.74
2023-04-21T12:56:54.431Z,18.87
2023-04-21T12:59:21.815Z,18.77
2023-04-21T13:01:49.003Z,18.64
2023-04-21T13:04:16.086Z,18.70
2023-04-21T13:06:43.150Z,18.94
2023-04-21T13:09:10.103Z,18.96
2023-04-21T13:11:37.169Z,18.97
2023-04-21T13:14:04.324Z,18.90
2023-04-21T13:16:31.954Z,18.66
2023-04-21T13:18:59.304Z,18.56
2023-04-21T13:21:26.597Z,18.47
2023-04-21T13:23:53.903Z,18.61
2023-04-21T13:26:21.295Z,18.54
2023-04-21T13:28:48.356Z,18.38
2023-04-21T13:31:15.790Z,18.19
2023-04-21T13:33:43.147Z,18.37
2023-04-21T13:36:12.905Z,18.28
2023-04-21T13:38:41.156Z,18.40
2023-04-21T13:41:08.391Z,18.35
2023-04-21T13:43:35.879Z,18.08
2023-04-21T13:46:03.011Z,17.66
2023-04-21T13:48:30.173Z,17.47
2023-04-21T13:50:57.233Z,17.16
2023-04-21T13:53:24.408Z,17.08
2023-04-21T13:55:51.303Z,17.15
2023-04-21T13:58:18.401Z,17.15
2023-04-21T14:00:45.582Z,17.19
2023-04-21T14:03:12.713Z,17.06
2023-04-21T14:05:40.276Z,16.77
2023-04-21T14:08:07.893Z,16.82
2023-04-21T14:10:34.660Z,16.91
2023-04-21T14:13:01.770Z,16.95
2023-04-21T14:15:28.672Z,17.01
2023-04-21T14:18:03.094Z,16.93
2023-04-21T14:20:29.989Z,16.99
2023-04-21T14:22:56.931Z,17.03
2023-04-21T14:25:24.037Z,16.80
2023-04-21T14:27:51.023Z,16.75
2023-04-21T14:30:18.516Z,16.77
2023-04-21T14:32:46.228Z,16.85
2023-04-21T14:35:13.601Z,16.94
2023-04-21T14:37:41.262Z,16.87
2023-04-21T14:40:09.527Z,16.87
2023-04-21T14:42:36.877Z,16.73
2023-04-21T14:45:04.119Z,16.83
2023-04-21T14:47:31.177Z,16.90
2023-04-21T14:49:58.329Z,16.90
2023-04-21T14:52:27.014Z,16.88
2023-04-21T14:54:54.063Z,16.84
2023-04-21T14:57:22.113Z,16.85
2023-04-21T14:59:51.926Z,16.78
2023-04-21T15:02:22.625Z,16.73
2023-04-21T15:04:50.185Z,16.68
2023-04-21T15:07:24.207Z,16.72
2023-04-21T15:09:52.695Z,16.67
2023-04-21T15:12:19.603Z,16.56
2023-04-21T15:14:47.022Z,16.44
2023-04-21T15:17:14.074Z,16.42
2023-04-21T15:19:40.849Z,16.34
2023-04-21T15:22:07.936Z,16.28
2023-04-21T15:24:34.916Z,16.30
2023-04-21T15:27:02.532Z,16.34
2023-04-21T15:29:29.692Z,16.23
2023-04-21T15:31:56.747Z,16.19
2023-04-21T15:34:23.758Z,16.11
2023-04-21T15:36:50.747Z,16.15
2023-04-21T15:39:17.690Z,16.07
2023-04-21T15:41:44.669Z,16.10
2023-04-21T15:44:11.664Z,16.05
2023-04-21T15:46:38.659Z,16.07
2023-04-21T15:49:05.864Z,16.08
2023-04-21T15:51:34.230Z,16.09
2023-04-21T15:54:01.298Z,16.15
2023-04-21T15:56:28.318Z,16.20
2023-04-21T15:58:57.217Z,16.15
2023-04-21T16:01:24.784Z,16.25
2023-04-21T16:03:53.647Z,16.19
2023-04-21T16:06:21.662Z,16.20
2023-04-21T16:09:07.456Z,16.14
2023-04-21T16:11:34.474Z,16.09
2023-04-21T16:14:01.605Z,16.06
2023-04-21T16:16:28.705Z,15.91
2023-04-21T16:18:55.489Z,15.68
2023-04-21T16:21:23.874Z,15.65
2023-04-21T16:23:50.858Z,15.52
2023-04-21T16:26:17.982Z,15.50
2023-04-21T16:28:45.017Z,15.44
2023-04-21T16:31:34.428Z,15.40
2023-04-21T16:34:01.387Z,15.31
2023-04-21T16:36:29.279Z,15.21
2023-04-21T16:38:56.421Z,15.16
2023-04-21T16:41:30.758Z,15.10
2023-04-21T16:43:57.674Z,14.98
2023-04-21T16:52:59.963Z,14.57
2023-04-21T16:55:25.104Z,14.55
2023-04-21T16:57:52.374Z,14.52
2023-04-21T17:00:19.640Z,14.45
2023-04-21T17:02:46.660Z,14.39
2023-04-21T17:05:15.888Z,14.35
2023-04-21T17:07:43.312Z,14.33
2023-04-21T17:10:10.926Z,14.22
2023-04-21T17:12:37.731Z,14.27
2023-04-21T17:15:05.768Z,14.23
2023-04-21T17:17:48.896Z,14.14
2023-04-21T17:20:16.127Z,14.11
2023-04-21T17:22:43.187Z,14.05
2023-04-21T17:25:11.135Z,14.09
2023-04-21T17:27:40.746Z,14.04
2023-04-21T17:30:09.684Z,14.00
2023-04-21T17:32:37.289Z,14.01
2023-04-21T17:35:05.853Z,13.94
2023-04-21T17:37:34.150Z,13.96
2023-04-21T17:40:03.272Z,13.94
2023-04-21T17:42:30.872Z,13.94
2023-04-21T17:44:57.861Z,13.91
2023-04-21T17:47:24.764Z,13.90
2023-04-21T17:49:51.761Z,13.86
2023-04-21T17:52:18.743Z,13.85
2023-04-21T17:54:46.204Z,13.82
2023-04-21T17:57:13.434Z,13.79
2023-04-21T17:59:40.736Z,13.77
2023-04-21T18:02:08.003Z,13.73
2023-04-21T18:04:35.230Z,13.70
2023-04-21T18:07:03.320Z,13.70
2023-04-21T18:09:30.396Z,13.65
2023-04-21T18:11:58.542Z,13.60
2023-04-21T18:14:25.848Z,13.46
2023-04-21T18:16:53.354Z,13.52
2023-04-21T18:19:20.314Z,13.53
2023-04-21T18:21:47.279Z,13.46
2023-04-21T18:24:14.788Z,13.51
2023-04-21T18:26:41.645Z,13.51
2023-04-21T18:29:08.643Z,13.52
2023-04-21T18:31:36.409Z,13.62
2023-04-21T18:34:03.411Z,13.51
2023-04-21T18:36:33.165Z,13.51
2023-04-21T18:39:20.575Z,13.45
2023-04-21T18:42:14.154Z,13.43
2023-04-21T18:44:41.305Z,13.34
2023-04-21T18:47:08.266Z,13.26
2023-04-21T18:49:35.608Z,13.26
2023-04-21T18:52:02.905Z,13.36
2023-04-21T18:54:29.779Z,13.29
2023-04-21T18:56:57.748Z,13.26
2023-04-21T18:59:25.524Z,13.29
2023-04-21T19:01:53.635Z,13.24
2023-04-21T19:04:21.078Z,13.22
2023-04-21T19:06:49.084Z,13.21
2023-04-21T19:09:17.023Z,13.15
2023-04-21T19:11:44.203Z,13.12
2023-04-21T19:14:11.581Z,13.11
2023-04-21T19:16:38.631Z,13.08
2023-04-21T19:19:06.169Z,13.06
2023-04-21T19:21:33.461Z,13.05
2023-04-21T19:24:00.562Z,13.02
2023-04-21T19:26:34.234Z,13.05
2023-04-21T19:29:01.269Z,13.01
2023-04-21T19:31:28.118Z,13.02
2023-04-21T19:33:55.093Z,13.04
2023-04-21T19:36:22.206Z,12.99
2023-04-21T19:38:50.560Z,12.94
2023-04-21T19:41:17.794Z,12.94
2023-04-21T19:43:44.870Z,12.95
2023-04-21T19:46:12.088Z,12.97
2023-04-21T19:48:41.334Z,12.92
2023-04-21T19:51:09.516Z,12.91
2023-04-21T19:53:36.434Z,12.93
2023-04-21T19:56:03.397Z,12.91
2023-04-21T19:58:41.188Z,12.89
2023-04-21T20:01:09.573Z,12.89
2023-04-21T20:03:38.483Z,12.94
2023-04-21T20:06:06.840Z,12.93
2023-04-21T20:08:34.040Z,12.90
2023-04-21T20:11:00.945Z,12.84
2023-04-21T20:13:27.863Z,12.87
2023-04-21T20:15:55.416Z,12.82
2023-04-21T20:18:22.548Z,12.78
2023-04-21T20:20:49.474Z,12.77
2023-04-21T20:23:16.550Z,12.64
2023-04-21T20:25:43.588Z,12.71
2023-04-21T20:28:10.950Z,12.67
2023-04-21T20:30:37.720Z,12.68
2023-04-21T20:33:05.044Z,12.70
2023-04-21T20:35:34.331Z,12.72
2023-04-21T20:38:01.509Z,12.66
2023-04-21T20:40:28.429Z,12.63
2023-04-21T20:42:55.545Z,12.61
2023-04-21T20:45:22.500Z,12.67
2023-04-21T20:47:49.380Z,12.65
2023-04-21T20:50:16.751Z,12.62
2023-04-21T20:52:43.787Z,12.63
2023-04-21T20:55:11.298Z,12.63
2023-04-21T20:57:38.388Z,12.56
2023-04-21T21:00:06.618Z,12.63
2023-04-21T21:02:34.336Z,12.65
2023-04-21T21:05:01.404Z,12.62
2023-04-21T21:07:28.608Z,12.68
2023-04-21T21:09:56.246Z,12.63
2023-04-21T21:12:23.136Z,12.64
2023-04-21T21:14:50.532Z,12.58
2023-04-21T21:17:17.367Z,12.59
2023-04-21T21:19:44.558Z,12.65
2023-04-21T21:22:11.509Z,12.65
2023-04-21T21:24:39.088Z,12.65
2023-04-21T21:27:06.074Z,12.65
2023-04-21T21:29:33.196Z,12.63
2023-04-21T21:32:00.028Z,12.63
2023-04-21T21:34:27.175Z,12.65
2023-04-21T21:36:53.994Z,12.66
2023-04-21T21:39:21.149Z,12.63
2023-04-21T21:41:47.988Z,12.61
2023-04-21T21:44:15.031Z,12.60
2023-04-21T21:46:42.471Z,12.59
2023-04-21T21:49:10.655Z,12.59
2023-04-21T21:51:37.501Z,12.70
2023-04-21T21:54:05.581Z,12.68
2023-04-21T21:56:32.768Z,12.63
2023-04-21T21:58:59.638Z,12.63
2023-04-21T22:01:26.660Z,12.54
2023-04-21T22:03:54.121Z,12.54
2023-04-21T22:06:26.636Z,12.45
2023-04-21T22:08:53.690Z,12.45
2023-04-21T22:11:20.832Z,12.46
2023-04-21T22:13:47.796Z,12.38
2023-04-21T22:16:14.856Z,12.36
2023-04-21T22:18:41.769Z,12.42
2023-04-21T22:21:08.932Z,12.38
2023-04-21T22:23:36.457Z,12.39
2023-04-21T22:26:03.488Z,12.34
2023-04-21T22:28:30.346Z,12.41
2023-04-21T22:30:57.616Z,12.37
2023-04-21T22:33:24.502Z,12.33
2023-04-21T22:35:51.468Z,12.37
2023-04-21T22:38:18.325Z,12.32
2023-04-21T22:40:45.274Z,12.27
2023-04-21T22:43:12.312Z,12.23
2023-04-21T22:45:39.207Z,12.17
2023-04-21T22:48:06.223Z,12.19
2023-04-21T22:50:34.722Z,12.10
2023-04-21T22:53:01.668Z,12.14
2023-04-21T22:55:28.981Z,12.14
2023-04-21T22:57:55.923Z,12.10
2023-04-21T23:00:22.865Z,12.12
2023-04-21T23:02:49.903Z,12.10
2023-04-21T23:05:17.368Z,12.08
2023-04-21T23:07:44.285Z,12.10
2023-04-21T23:10:11.583Z,12.04
2023-04-21T23:12:38.580Z,12.15
2023-04-21T23:15:06.084Z,12.14
2023-04-21T23:17:33.006Z,12.13
2023-04-21T23:20:02.380Z,12.01
2023-04-21T23:22:29.216Z,12.02
2023-04-21T23:24:56.576Z,11.93
2023-04-21T23:27:23.383Z,12.04
2023-04-21T23:29:50.149Z,12.03
2023-04-21T23:32:17.304Z,12.05
2023-04-21T23:34:44.556Z,12.08
2023-04-21T23:37:11.771Z,12.07
2023-04-21T23:39:39.112Z,11.97
2023-04-21T23:42:06.426Z,11.93
2023-04-21T23:44:33.304Z,11.98
2023-04-21T23:47:00.341Z,11.90
2023-04-21T23:49:27.153Z,11.92
2023-04-21T23:51:54.165Z,11.84
2023-04-21T23:54:21.319Z,11.94
2023-04-21T23:56:48.288Z,11.84
2023-04-21T23:59:15.460Z,11.71
